Pagrindinis puslapis
METAR-TAF:

METAR-TAF

Oro uostai :

Karakasas, Venesuela

platuma: 10-36N, ilguma: 066-59W, Aukštis: 43 m

Dabartinis oras

Ataskaita buvo paskelbta 1 valandą ir 7 minutes, ne 04:02 UTC
Vėjas 6 kt iš Rytų
Temperatūra
Slėgis 1013 hPa

METAR: SVMI 010402Z AUTO 08006KT NCD ///// Q1013

Laikas: 01:09 (05:09 UTC)

Prognozė

Ataskaita buvo paskelbta 7 valandos ir 9 minutes, ne 22:00 UTC
Prognozė galioja nuo 01 metu 00 UTC su 02 metu 00 UTC
Vėjas 3 kt iš Rytų
Matomumas 10 km arba daugiau
Išsisklaidę debesys ne aukštis 1600 ft
Tapsmas
nuo 01 metu 00 UTC su 01 metu 04 UTC
Vėjas 3 kt iš Rytų/Šiaurės Rytų
Matomumas 10 km arba daugiau

TAF: SVMI 312200Z 0100/0200 09003KT 9999 SCT016 TX30/19Z TN23/09Z BECMG 0100/0104 07003KT 9999 CT030

Orai ataskaitas ir orų prognozės (METAR, TAF).

turimą stotys yra geltonos ir raudonos taškus žemėlapyje.

Perkelti pele per norėdami pamatyti stoties vardą.

Tada spustelėkite, norėdami matyti oro stebėjimo ir prognozės.

Norėdami pakeisti žemėlapį: spustelėkite ant žalios mygtukų su juodo kryžiaus žemyn,; žalią mygtuką su brūkšneliu, jei norite nutolinti; arba žalių rodyklių gretimoms žemėlapius.


METAR-TAF: